createdAt,value
2022-11-03T05:00:34.879Z,5.70
2022-11-03T05:11:39.740Z,3.60
2022-11-03T05:22:39.603Z,2.90
2022-11-03T05:33:39.480Z,3.70
2022-11-03T05:44:39.411Z,3.60
2022-11-03T05:55:39.230Z,3.20
2022-11-03T06:06:39.107Z,3.20
2022-11-03T06:17:38.995Z,3.20
2022-11-03T06:28:38.864Z,4.00
2022-11-03T06:39:38.731Z,3.30
2022-11-03T06:50:42.371Z,2.90
2022-11-03T07:01:38.615Z,3.00
2022-11-03T07:12:38.360Z,3.80
2022-11-03T07:23:40.187Z,4.70
2022-11-03T07:34:38.133Z,3.70
2022-11-03T07:45:38.002Z,5.70
2022-11-03T07:56:37.893Z,3.60
2022-11-03T08:07:37.752Z,3.40
2022-11-03T08:18:37.623Z,3.90
2022-11-03T08:29:37.518Z,5.00
2022-11-03T08:40:37.379Z,3.90
2022-11-03T08:51:43.013Z,3.10
2022-11-03T09:02:37.260Z,3.90
2022-11-03T09:13:37.003Z,2.90
2022-11-03T09:24:36.892Z,2.90
2022-11-03T09:35:36.762Z,3.20
2022-11-03T09:46:36.648Z,3.50
2022-11-03T09:57:36.510Z,2.40
2022-11-03T10:08:36.396Z,2.40
2022-11-03T10:19:36.265Z,3.00
2022-11-03T10:30:45.383Z,3.40
2022-11-03T10:41:37.066Z,2.80
2022-11-03T10:52:35.914Z,3.70
2022-11-03T11:03:35.782Z,2.90
2022-11-03T11:14:35.667Z,3.60
2022-11-03T11:25:35.545Z,3.90
2022-11-03T11:36:35.421Z,2.50
2022-11-03T11:47:36.828Z,3.50
2022-11-03T11:58:35.177Z,3.10
2022-11-03T12:09:35.116Z,3.30
2022-11-03T12:20:34.936Z,3.60
2022-11-03T12:31:37.007Z,3.70
2022-11-03T12:42:34.701Z,3.60
2022-11-03T12:53:34.567Z,3.30
2022-11-03T13:04:34.445Z,3.80
2022-11-03T13:15:34.323Z,5.90
2022-11-03T13:26:34.236Z,6.90
2022-11-03T13:37:34.097Z,3.90
2022-11-03T13:49:35.448Z,2.80
2022-11-03T13:59:34.841Z,4.20
2022-11-03T14:10:33.713Z,4.80
2022-11-03T14:21:33.603Z,4.30
2022-11-03T14:32:33.489Z,4.60
2022-11-03T14:43:35.287Z,3.50
2022-11-03T14:54:33.241Z,3.50
2022-11-03T15:05:33.105Z,3.60
2022-11-03T15:16:32.987Z,3.80
2022-11-03T15:27:32.865Z,3.10
2022-11-03T15:38:32.754Z,3.50
2022-11-03T15:49:33.617Z,5.40
2022-11-03T16:00:32.507Z,4.90
2022-11-03T16:11:32.375Z,5.50
2022-11-03T16:22:32.253Z,5.90
2022-11-03T16:33:32.136Z,5.70
2022-11-03T16:44:32.020Z,5.10
2022-11-03T16:55:31.907Z,6.30
2022-11-03T17:06:31.769Z,4.90
2022-11-03T17:17:31.648Z,4.20
2022-11-03T17:28:31.537Z,5.00
2022-11-03T17:39:31.416Z,5.60
2022-11-03T17:50:31.282Z,4.40
2022-11-03T18:01:31.430Z,6.00
2022-11-03T18:12:31.049Z,4.90
2022-11-03T18:23:30.929Z,4.30
2022-11-03T18:34:30.796Z,4.60
2022-11-03T18:45:30.666Z,6.00
2022-11-03T18:56:34.153Z,5.70
2022-11-03T19:07:30.418Z,7.30
2022-11-03T19:18:30.317Z,5.00
2022-11-03T19:29:30.190Z,4.70
2022-11-03T19:40:30.052Z,4.60
2022-11-03T19:51:29.929Z,4.80
2022-11-03T20:02:29.890Z,5.50
2022-11-03T20:13:29.693Z,5.20
2022-11-03T20:24:29.572Z,5.60
2022-11-03T20:35:29.448Z,5.40
2022-11-03T20:46:29.316Z,3.60
2022-11-03T20:57:29.197Z,3.60
2022-11-03T21:08:29.071Z,4.50
2022-11-03T21:19:28.958Z,5.20
2022-11-03T21:30:29.820Z,4.10
2022-11-03T21:41:28.726Z,4.60
2022-11-03T21:52:28.579Z,5.10
